Time;durP1;ratioP1;P1;durP2;ratioP2;P2;SDS_P1;SDS_P2;PMS_P1;PMS_P2;Temp;Humidity;BMP_temperature;BMP_pressure;BME280_temperature;BME280_humidity;BME280_pressure;Samples;Min_cycle;Max_cycle;Signal;HPM_P1;HPM_P2
2021/07/11 00:00:37;;;;;;;1.48;0.93;;;26.60;69.30;;;;;;5123673;28;20024;-39
2021/07/11 00:03:03;;;;;;;1.08;1.00;;;26.60;69.20;;;;;;5123397;28;20031;-40
2021/07/11 00:05:29;;;;;;;1.43;1.10;;;26.60;69.20;;;;;;5122851;28;20030;-39
2021/07/11 00:07:56;;;;;;;1.30;1.10;;;26.60;69.20;;;;;;5122289;28;20115;-39
2021/07/11 00:10:22;;;;;;;1.17;1.00;;;26.60;69.10;;;;;;5121982;28;20068;-39
2021/07/11 00:12:48;;;;;;;1.45;1.10;;;26.60;69.20;;;;;;5122475;28;20031;-39
2021/07/11 00:15:17;;;;;;;1.13;0.90;;;26.60;69.10;;;;;;5121952;28;20035;-38
2021/07/11 00:17:43;;;;;;;1.10;0.90;;;26.60;69.10;;;;;;5122795;28;20059;-37
2021/07/11 00:20:11;;;;;;;1.40;1.10;;;26.60;69.00;;;;;;5122859;28;20040;-39
2021/07/11 00:22:40;;;;;;;1.60;0.98;;;26.60;69.10;;;;;;5123130;28;20028;-39
2021/07/11 00:25:07;;;;;;;0.93;0.82;;;26.60;69.10;;;;;;5123110;28;20079;-38
2021/07/11 00:27:33;;;;;;;1.10;1.00;;;26.60;69.10;;;;;;5122753;28;20544;-37
2021/07/11 00:30:00;;;;;;;0.80;0.80;;;26.60;69.10;;;;;;5121726;28;20499;-40
2021/07/11 00:32:26;;;;;;;1.10;1.00;;;26.60;69.20;;;;;;5123134;28;20020;-40
2021/07/11 00:34:52;;;;;;;1.00;0.88;;;26.60;69.10;;;;;;5121422;28;20032;-40
2021/07/11 00:37:19;;;;;;;1.20;1.00;;;26.60;69.20;;;;;;5113892;28;20039;-40
2021/07/11 00:39:45;;;;;;;0.88;0.88;;;26.60;69.20;;;;;;5107579;28;20024;-40
2021/07/11 00:42:15;;;;;;;0.77;0.70;;;26.50;69.30;;;;;;5122610;28;20111;-38
2021/07/11 00:44:42;;;;;;;1.10;1.00;;;26.50;69.40;;;;;;5122817;28;20145;-43
2021/07/11 00:47:09;;;;;;;1.65;0.90;;;26.50;69.60;;;;;;5122774;28;20038;-40
2021/07/11 00:49:35;;;;;;;;;;;26.50;69.60;;;;;;5123097;28;20024;-40
2021/07/11 00:52:01;;;;;;;1.10;1.00;;;26.50;69.60;;;;;;5122763;28;19908;-40
2021/07/11 00:54:27;;;;;;;1.10;1.00;;;26.50;69.70;;;;;;5122721;28;20038;-40
2021/07/11 00:56:53;;;;;;;3.33;1.80;;;26.50;69.70;;;;;;5122305;28;20036;-38
2021/07/11 00:59:20;;;;;;;1.10;0.95;;;26.50;69.70;;;;;;5122739;28;20020;-39
2021/07/11 01:01:58;;;;;;;1.50;1.00;;;26.50;69.70;;;;;;5122618;28;20024;-39
2021/07/11 01:04:30;;;;;;;1.20;1.05;;;26.50;69.70;;;;;;5121234;28;20088;-39
2021/07/11 01:07:00;;;;;;;1.25;1.15;;;26.50;69.60;;;;;;5119978;28;20028;-39
2021/07/11 01:09:38;;;;;;;2.35;0.95;;;26.50;69.60;;;;;;5121049;28;20083;-39
2021/07/11 01:12:04;;;;;;;;;;;26.50;69.60;;;;;;5105290;28;20028;-40
2021/07/11 01:14:30;;;;;;;0.90;0.90;;;26.50;69.60;;;;;;5102261;28;19904;-39
2021/07/11 01:16:57;;;;;;;0.80;0.80;;;26.50;69.60;;;;;;5101983;28;20040;-39
2021/07/11 01:19:44;;;;;;;1.15;0.98;;;26.50;70.30;;;;;;5135590;27;20272;-39
2021/07/11 01:22:13;;;;;;;1.35;1.00;;;26.40;69.60;;;;;;5105762;28;20559;-38
2021/07/11 01:24:49;;;;;;;1.10;1.00;;;26.40;69.50;;;;;;5105852;28;20020;-39
2021/07/11 01:27:16;;;;;;;4.50;1.65;;;26.40;69.50;;;;;;5136020;27;20024;-40
2021/07/11 01:29:42;;;;;;;0.80;0.80;;;26.40;69.50;;;;;;5107954;28;20028;-40
2021/07/11 01:32:08;;;;;;;1.50;0.80;;;26.40;69.50;;;;;;5108040;28;20038;-39
2021/07/11 01:34:35;;;;;;;1.37;1.00;;;26.40;69.60;;;;;;5126052;28;20468;-39
2021/07/11 01:37:01;;;;;;;2.10;1.05;;;26.40;69.60;;;;;;5125660;28;20039;-40
2021/07/11 01:39:27;;;;;;;1.30;0.88;;;26.40;69.60;;;;;;5125898;28;20034;-40
2021/07/11 01:41:53;;;;;;;3.07;0.90;;;26.40;69.70;;;;;;5124508;28;20108;-39
2021/07/11 01:44:20;;;;;;;0.98;0.88;;;26.40;69.80;;;;;;5124320;28;20027;-40
2021/07/11 01:46:46;;;;;;;1.27;0.80;;;26.40;69.80;;;;;;5124676;28;20036;-39
2021/07/11 01:49:12;;;;;;;1.20;1.10;;;26.40;69.90;;;;;;5125559;28;20095;-39
2021/07/11 01:51:38;;;;;;;2.03;0.97;;;26.40;69.90;;;;;;5107769;28;20027;-38
2021/07/11 01:54:05;;;;;;;1.88;1.10;;;26.40;69.90;;;;;;5125812;28;20257;-41
2021/07/11 01:56:31;;;;;;;1.25;0.88;;;26.40;70.00;;;;;;5125673;28;20063;-40
2021/07/11 01:58:57;;;;;;;1.33;0.93;;;26.40;70.00;;;;;;5125714;28;20023;-38
2021/07/11 02:01:24;;;;;;;0.73;0.70;;;26.40;70.00;;;;;;5125736;28;20563;-40
2021/07/11 02:03:50;;;;;;;1.23;0.85;;;26.40;70.00;;;;;;5125555;28;20031;-40
2021/07/11 02:06:16;;;;;;;1.17;1.02;;;26.40;70.00;;;;;;5125527;27;20042;-40
2021/07/11 02:08:42;;;;;;;1.25;1.15;;;26.40;70.00;;;;;;5124892;28;20038;-40
2021/07/11 02:11:10;;;;;;;1.30;1.10;;;26.30;69.90;;;;;;5107209;28;20030;-40
2021/07/11 02:13:50;;;;;;;0.90;0.88;;;26.30;69.90;;;;;;5123971;28;20081;-38
2021/07/11 02:16:30;;;;;;;0.98;0.98;;;26.30;69.80;;;;;;5125547;28;20101;-40
2021/07/11 02:18:57;;;;;;;1.60;0.80;;;26.30;69.90;;;;;;5123713;28;20538;-39
2021/07/11 02:21:23;;;;;;;1.30;0.90;;;26.30;69.80;;;;;;5123576;28;20031;-40
2021/07/11 02:23:50;;;;;;;1.00;0.90;;;26.30;69.90;;;;;;5125229;28;20047;-40
2021/07/11 02:26:16;;;;;;;1.08;0.80;;;26.30;69.90;;;;;;5125407;28;20033;-39
2021/07/11 02:28:43;;;;;;;1.05;0.80;;;26.30;70.00;;;;;;5125007;28;20438;-39
2021/07/11 02:31:12;;;;;;;1.60;1.10;;;26.30;70.00;;;;;;5102461;28;20032;-40
2021/07/11 02:33:41;;;;;;;0.77;0.77;;;26.30;69.90;;;;;;5104743;28;20059;-40
2021/07/11 02:36:20;;;;;;;1.08;0.80;;;26.20;70.00;;;;;;5104412;28;20039;-40
2021/07/11 02:39:07;;;;;;;0.80;0.80;;;26.20;69.90;;;;;;5104234;28;20035;-39
2021/07/11 02:41:33;;;;;;;1.33;0.75;;;26.20;69.90;;;;;;5116110;28;20024;-40
2021/07/11 02:44:00;;;;;;;1.83;0.90;;;26.20;70.00;;;;;;5124760;28;20061;-40
2021/07/11 02:46:30;;;;;;;0.88;0.77;;;26.20;69.90;;;;;;5123527;28;20036;-39
2021/07/11 02:48:57;;;;;;;1.50;1.02;;;26.20;70.60;;;;;;5124562;28;20055;-40
2021/07/11 02:51:26;;;;;;;1.10;0.87;;;26.20;69.80;;;;;;5124656;28;20016;-40
2021/07/11 02:53:53;;;;;;;1.02;0.80;;;26.20;69.80;;;;;;5123310;28;20088;-40
2021/07/11 02:56:19;;;;;;;1.05;0.90;;;26.20;69.80;;;;;;5124587;27;20045;-40
2021/07/11 02:58:47;;;;;;;0.97;0.90;;;26.20;69.70;;;;;;5124493;28;20060;-40
2021/07/11 03:01:13;;;;;;;0.90;0.80;;;26.20;69.80;;;;;;5124481;28;20024;-40
2021/07/11 03:03:39;;;;;;;1.10;1.00;;;26.20;69.70;;;;;;5122995;28;20031;-39
2021/07/11 03:06:05;;;;;;;1.15;0.90;;;26.20;69.70;;;;;;5102306;28;20031;-40
2021/07/11 03:08:31;;;;;;;1.27;0.90;;;26.20;69.70;;;;;;5120548;28;20020;-40
2021/07/11 03:10:57;;;;;;;1.05;0.85;;;26.20;69.70;;;;;;5123058;28;20027;-38
2021/07/11 03:13:23;;;;;;;0.97;0.80;;;26.20;69.70;;;;;;5124290;28;20095;-40
2021/07/11 03:15:50;;;;;;;1.13;0.98;;;26.10;70.30;;;;;;5105977;28;20024;-40
2021/07/11 03:18:16;;;;;;;1.05;0.95;;;26.10;69.60;;;;;;5122691;28;20036;-40
2021/07/11 03:20:42;;;;;;;1.90;1.00;;;26.10;69.70;;;;;;5122667;28;20043;-39
2021/07/11 03:23:08;;;;;;;1.10;1.00;;;26.10;69.60;;;;;;5122717;28;20070;-39
2021/07/11 03:25:35;;;;;;;1.30;1.20;;;26.10;69.60;;;;;;5122636;28;20066;-39
2021/07/11 03:28:05;;;;;;;1.10;0.90;;;26.10;69.60;;;;;;5105664;28;20035;-39
2021/07/11 03:30:36;;;;;;;1.10;0.90;;;26.10;69.50;;;;;;5122490;28;20054;-40
2021/07/11 03:33:03;;;;;;;1.23;1.00;;;26.10;69.60;;;;;;5122340;28;20050;-39
2021/07/11 03:35:41;;;;;;;1.10;1.00;;;26.10;69.60;;;;;;5123755;28;20031;-40
2021/07/11 03:38:08;;;;;;;1.25;0.90;;;26.10;69.60;;;;;;5122463;28;20049;-40
2021/07/11 03:40:36;;;;;;;;;;;26.10;69.60;;;;;;5119300;28;20085;-39
2021/07/11 03:43:05;;;;;;;1.13;1.02;;;26.10;69.50;;;;;;5101906;28;20265;-39
2021/07/11 03:45:31;;;;;;;1.35;1.00;;;26.10;69.60;;;;;;5101898;28;20028;-39
2021/07/11 03:48:17;;;;;;;1.07;0.97;;;26.10;69.50;;;;;;5121482;28;20036;-39
2021/07/11 03:50:46;;;;;;;1.05;0.93;;;26.10;69.40;;;;;;5122013;28;20016;-39
2021/07/11 03:53:12;;;;;;;1.00;0.90;;;26.10;69.50;;;;;;5122170;28;20035;-38
2021/07/11 03:55:39;;;;;;;1.00;0.90;;;26.00;69.40;;;;;;5122130;28;20027;-40
2021/07/11 03:58:05;;;;;;;1.10;0.85;;;26.00;69.40;;;;;;5105323;28;20051;-38
2021/07/11 04:00:31;;;;;;;2.20;0.80;;;26.00;69.40;;;;;;5121949;28;20024;-39
2021/07/11 04:02:58;;;;;;;1.60;1.10;;;26.00;69.30;;;;;;5121959;28;20111;-39
2021/07/11 04:05:26;;;;;;;1.15;0.90;;;26.00;69.30;;;;;;5121780;28;20027;-39
2021/07/11 04:07:53;;;;;;;1.10;0.95;;;26.00;69.30;;;;;;5121863;28;20028;-39
2021/07/11 04:10:27;;;;;;;1.05;0.95;;;26.00;70.10;;;;;;5121675;28;20028;-39
2021/07/11 04:12:53;;;;;;;1.13;1.02;;;26.00;69.20;;;;;;5101407;28;20127;-39
2021/07/11 04:15:20;;;;;;;0.85;0.70;;;26.00;69.20;;;;;;5103030;28;20026;-38
2021/07/11 04:17:48;;;;;;;0.77;0.70;;;26.00;69.20;;;;;;5102856;28;20036;-39
2021/07/11 04:20:14;;;;;;;1.02;0.93;;;26.00;69.10;;;;;;5102282;28;20097;-39
2021/07/11 04:22:40;;;;;;;2.20;0.88;;;26.00;69.20;;;;;;5101573;28;20051;-39
2021/07/11 04:25:10;;;;;;;1.05;0.95;;;25.90;69.10;;;;;;5101418;28;20028;-39
2021/07/11 04:27:38;;;;;;;0.90;0.88;;;25.90;69.10;;;;;;5101405;28;20055;-39
2021/07/11 04:30:05;;;;;;;1.00;0.90;;;25.90;69.10;;;;;;5101136;28;20028;-39
2021/07/11 04:32:31;;;;;;;1.10;1.00;;;25.90;69.00;;;;;;5102845;28;20032;-39
2021/07/11 04:34:58;;;;;;;1.02;0.93;;;25.90;68.80;;;;;;5101084;28;20031;-40
2021/07/11 04:37:24;;;;;;;0.80;0.80;;;25.90;68.90;;;;;;5121829;28;20059;-39
2021/07/11 04:39:50;;;;;;;1.20;1.10;;;25.90;68.80;;;;;;5122664;28;20088;-39
2021/07/11 04:42:17;;;;;;;1.13;0.93;;;25.90;68.80;;;;;;5123137;28;20111;-37
2021/07/11 04:44:46;;;;;;;0.80;0.80;;;25.90;68.80;;;;;;5123085;28;20028;-39
2021/07/11 04:47:13;;;;;;;1.10;0.90;;;25.90;68.80;;;;;;5123007;28;20027;-39
2021/07/11 04:49:40;;;;;;;1.00;0.90;;;25.80;68.80;;;;;;5122918;28;20109;-39
2021/07/11 04:52:06;;;;;;;1.02;1.00;;;25.80;68.80;;;;;;5122779;28;20024;-39
2021/07/11 04:54:33;;;;;;;1.88;1.00;;;25.80;68.80;;;;;;5123328;28;20369;-39
2021/07/11 04:57:00;;;;;;;1.00;0.80;;;25.80;68.90;;;;;;5125766;28;20504;-39
2021/07/11 04:59:26;;;;;;;0.90;0.80;;;25.80;68.90;;;;;;5126913;28;20038;-41
2021/07/11 05:01:52;;;;;;;1.10;0.80;;;25.80;68.90;;;;;;5126953;28;20036;-39
2021/07/11 05:04:18;;;;;;;1.58;0.80;;;25.80;69.00;;;;;;5126673;28;20032;-42
2021/07/11 05:06:44;;;;;;;2.47;1.00;;;25.80;69.00;;;;;;5126524;28;20027;-39
2021/07/11 05:09:11;;;;;;;1.10;0.95;;;25.80;68.90;;;;;;5126738;28;20049;-38
2021/07/11 05:11:37;;;;;;;1.00;0.85;;;25.80;68.90;;;;;;5126420;28;20090;-38
2021/07/11 05:14:04;;;;;;;0.90;0.83;;;25.80;68.90;;;;;;5126769;28;20031;-38
2021/07/11 05:16:30;;;;;;;1.10;0.80;;;25.80;68.90;;;;;;5126787;28;20058;-39
2021/07/11 05:18:56;;;;;;;0.90;0.80;;;25.80;68.90;;;;;;5126755;28;20040;-39
2021/07/11 05:21:22;;;;;;;1.10;0.88;;;25.80;68.90;;;;;;5126296;28;20514;-39
2021/07/11 05:23:48;;;;;;;1.13;0.95;;;25.70;68.90;;;;;;5126321;28;20028;-39
2021/07/11 05:26:14;;;;;;;1.08;0.80;;;25.70;68.90;;;;;;5126808;28;20672;-40
2021/07/11 05:28:41;;;;;;;1.10;1.00;;;25.70;68.80;;;;;;5126561;28;20087;-40
2021/07/11 05:31:08;;;;;;;0.80;0.70;;;25.70;68.80;;;;;;5126305;28;20035;-39
2021/07/11 05:33:34;;;;;;;1.10;0.75;;;25.70;68.80;;;;;;5126313;28;20047;-39
2021/07/11 05:36:00;;;;;;;1.73;1.13;;;25.70;68.80;;;;;;5118013;28;20077;-37
2021/07/11 05:38:27;;;;;;;1.13;0.88;;;25.70;68.80;;;;;;5107676;28;20038;-38
2021/07/11 05:40:53;;;;;;;1.00;0.90;;;25.70;68.70;;;;;;5123650;28;20032;-39
2021/07/11 05:43:20;;;;;;;1.02;0.82;;;25.70;68.80;;;;;;5126081;28;20024;-39
2021/07/11 05:45:46;;;;;;;1.05;0.95;;;25.60;68.70;;;;;;5126529;28;20035;-38
2021/07/11 05:48:12;;;;;;;0.77;0.77;;;25.60;68.80;;;;;;5126014;28;20454;-39
2021/07/11 05:50:38;;;;;;;0.85;0.80;;;25.60;68.80;;;;;;5125937;28;20030;-38
2021/07/11 05:53:04;;;;;;;1.27;1.00;;;25.60;68.70;;;;;;5125968;27;20053;-39
2021/07/11 05:55:31;;;;;;;1.50;0.80;;;25.60;68.70;;;;;;5124575;28;20066;-39
2021/07/11 05:57:57;;;;;;;1.67;0.93;;;25.60;68.80;;;;;;5125931;28;20051;-38
2021/07/11 06:00:24;;;;;;;0.80;0.80;;;25.60;68.80;;;;;;5126090;28;20023;-39
2021/07/11 06:02:50;;;;;;;1.20;1.00;;;25.60;68.80;;;;;;5125621;28;20035;-39
2021/07/11 06:05:16;;;;;;;3.00;0.88;;;25.60;68.80;;;;;;5124543;28;20575;-40
2021/07/11 06:07:42;;;;;;;0.80;0.80;;;25.60;68.90;;;;;;5125055;28;20091;-39
2021/07/11 06:10:09;;;;;;;1.23;1.00;;;25.60;68.80;;;;;;5125695;28;20751;-38
2021/07/11 06:12:35;;;;;;;3.05;2.13;;;25.60;68.90;;;;;;5103505;28;20030;-40
2021/07/11 06:15:03;;;;;;;0.77;0.77;;;25.50;68.80;;;;;;5105194;28;20039;-39
2021/07/11 06:17:32;;;;;;;1.10;1.00;;;25.50;68.80;;;;;;5105049;28;20046;-39
2021/07/11 06:19:59;;;;;;;1.00;0.90;;;25.50;68.80;;;;;;5105027;28;20048;-39
2021/07/11 06:22:26;;;;;;;3.90;0.90;;;25.50;68.80;;;;;;5104794;28;20032;-41
2021/07/11 06:24:52;;;;;;;1.35;0.90;;;25.50;68.80;;;;;;5105262;28;20024;-38
2021/07/11 06:27:18;;;;;;;1.10;1.00;;;25.50;68.80;;;;;;5104912;28;20040;-39
2021/07/11 06:29:44;;;;;;;1.85;0.88;;;25.50;68.80;;;;;;5104982;28;20030;-39
2021/07/11 06:32:10;;;;;;;1.13;1.00;;;25.50;68.80;;;;;;5104579;28;20020;-38
2021/07/11 06:34:36;;;;;;;1.07;0.77;;;25.40;68.80;;;;;;5104728;28;20032;-39
2021/07/11 06:37:03;;;;;;;1.08;0.90;;;25.40;68.80;;;;;;5121462;28;20043;-42
2021/07/11 06:39:29;;;;;;;1.43;0.80;;;25.40;68.80;;;;;;5124901;28;20034;-39
2021/07/11 06:41:55;;;;;;;1.25;1.00;;;25.40;68.80;;;;;;5124787;28;20070;-39
2021/07/11 06:44:21;;;;;;;1.15;1.00;;;25.40;68.70;;;;;;5125182;28;20031;-39
2021/07/11 06:46:47;;;;;;;1.10;0.90;;;25.40;68.70;;;;;;5125084;28;20039;-40
2021/07/11 06:49:13;;;;;;;0.90;0.90;;;25.40;68.80;;;;;;5124365;28;20035;-40
2021/07/11 06:51:39;;;;;;;1.70;0.90;;;25.40;68.80;;;;;;5124638;28;20031;-39
2021/07/11 06:54:06;;;;;;;0.88;0.80;;;25.40;68.80;;;;;;5124797;28;20023;-39
2021/07/11 06:56:32;;;;;;;1.35;0.68;;;25.40;68.70;;;;;;5124670;28;20095;-39
2021/07/11 06:58:58;;;;;;;1.23;1.00;;;25.40;68.80;;;;;;5124958;28;20528;-38
2021/07/11 07:01:24;;;;;;;0.93;0.83;;;25.40;68.80;;;;;;5124691;28;20039;-40
2021/07/11 07:03:50;;;;;;;1.75;0.88;;;25.40;68.80;;;;;;5124390;28;20020;-39
2021/07/11 07:06:16;;;;;;;1.15;0.90;;;25.40;68.80;;;;;;5124392;28;20024;-40
2021/07/11 07:08:42;;;;;;;0.80;0.68;;;25.30;68.70;;;;;;5124421;28;20024;-40
2021/07/11 07:11:09;;;;;;;1.13;1.02;;;25.30;68.80;;;;;;5124364;28;20045;-39
2021/07/11 07:13:35;;;;;;;0.88;0.85;;;25.30;68.80;;;;;;5124257;28;20031;-38
2021/07/11 07:16:01;;;;;;;0.85;0.80;;;25.30;68.80;;;;;;5124323;28;20032;-39
2021/07/11 07:18:27;;;;;;;1.52;1.10;;;25.30;68.90;;;;;;5123920;28;20036;-38
2021/07/11 07:20:53;;;;;;;1.10;0.93;;;25.30;68.80;;;;;;5124090;28;20044;-39
2021/07/11 07:23:19;;;;;;;1.40;0.95;;;25.30;68.80;;;;;;5124334;28;20095;-39
2021/07/11 07:25:45;;;;;;;3.00;0.90;;;25.30;68.90;;;;;;5124206;28;20091;-40
2021/07/11 07:28:12;;;;;;;2.40;1.10;;;25.30;68.80;;;;;;5124286;28;20031;-39
2021/07/11 07:30:38;;;;;;;1.73;0.90;;;25.30;68.90;;;;;;5123959;27;20094;-39
2021/07/11 07:33:04;;;;;;;1.13;0.90;;;25.30;68.90;;;;;;5123810;28;20027;-40
2021/07/11 07:35:30;;;;;;;0.80;0.80;;;25.30;68.90;;;;;;5124243;28;20264;-40
2021/07/11 07:37:56;;;;;;;1.10;1.00;;;25.20;68.90;;;;;;5124016;28;20039;-39
2021/07/11 07:40:23;;;;;;;1.33;0.93;;;25.20;68.80;;;;;;5123849;28;20023;-39
2021/07/11 07:42:50;;;;;;;1.48;1.08;;;25.20;68.80;;;;;;5123704;28;20070;-39
2021/07/11 07:45:16;;;;;;;1.35;1.00;;;25.20;68.80;;;;;;5123643;28;20087;-40
2021/07/11 07:47:42;;;;;;;0.97;0.87;;;25.20;68.80;;;;;;5123783;28;20563;-38
2021/07/11 07:50:12;;;;;;;0.90;0.90;;;25.20;68.80;;;;;;5123746;28;20023;-39
2021/07/11 07:52:38;;;;;;;1.02;0.93;;;25.20;68.80;;;;;;5123638;28;20044;-39
2021/07/11 07:55:05;;;;;;;3.37;1.10;;;25.20;68.80;;;;;;5123547;28;20108;-39
2021/07/11 07:57:31;;;;;;;1.08;0.98;;;25.20;68.80;;;;;;5123668;28;20039;-39
2021/07/11 07:59:57;;;;;;;1.85;0.90;;;25.20;68.80;;;;;;5123518;28;20038;-40
2021/07/11 08:02:24;;;;;;;1.02;0.70;;;25.20;68.80;;;;;;5123650;28;20053;-39
2021/07/11 08:04:50;;;;;;;1.95;0.90;;;25.20;68.80;;;;;;5123201;28;20031;-39
2021/07/11 08:07:16;;;;;;;1.07;0.87;;;25.20;68.80;;;;;;5123341;28;20034;-39
2021/07/11 08:09:42;;;;;;;1.58;0.90;;;25.20;68.90;;;;;;5123154;28;20046;-39
2021/07/11 08:12:09;;;;;;;1.08;1.00;;;25.20;68.80;;;;;;5123461;28;20038;-41
2021/07/11 08:14:35;;;;;;;1.40;0.93;;;25.10;68.80;;;;;;5123491;28;20038;-38
2021/07/11 08:17:01;;;;;;;1.70;0.90;;;25.10;68.90;;;;;;5123374;28;20062;-39
2021/07/11 08:19:27;;;;;;;1.10;0.80;;;25.10;68.80;;;;;;5123062;28;20101;-39
2021/07/11 08:21:54;;;;;;;1.23;1.00;;;25.10;68.80;;;;;;5123381;28;20032;-40
2021/07/11 08:24:23;;;;;;;1.42;1.05;;;25.10;68.80;;;;;;5122885;28;20024;-39
2021/07/11 08:26:49;;;;;;;0.82;0.80;;;25.10;68.90;;;;;;5121753;28;20480;-41
2021/07/11 08:29:15;;;;;;;1.00;0.90;;;25.10;68.80;;;;;;5122370;28;20051;-39
2021/07/11 08:31:41;;;;;;;1.13;1.00;;;25.10;68.90;;;;;;5123248;28;20023;-40
2021/07/11 08:34:08;;;;;;;1.15;0.90;;;25.10;68.80;;;;;;5123181;28;20024;-40
2021/07/11 08:36:34;;;;;;;0.90;0.80;;;25.10;68.90;;;;;;5123155;28;20109;-39
2021/07/11 08:39:00;;;;;;;2.28;1.02;;;25.10;68.80;;;;;;5123014;28;20053;-44
2021/07/11 08:41:26;;;;;;;0.90;0.90;;;25.10;68.80;;;;;;5123096;28;20036;-39
2021/07/11 08:43:53;;;;;;;0.98;0.93;;;25.00;68.80;;;;;;5122821;28;20737;-39
2021/07/11 08:46:20;;;;;;;1.95;0.90;;;25.00;68.90;;;;;;5122977;28;20035;-39
2021/07/11 08:48:48;;;;;;;1.08;0.80;;;25.00;68.80;;;;;;5123013;28;20055;-40
2021/07/11 08:51:15;;;;;;;0.90;0.90;;;25.00;68.80;;;;;;5122883;28;20036;-40
2021/07/11 08:53:41;;;;;;;2.05;1.00;;;25.00;68.80;;;;;;5122879;28;20024;-40
2021/07/11 08:56:18;;;;;;;1.20;1.10;;;25.00;68.90;;;;;;5121664;28;20020;-40
2021/07/11 08:58:47;;;;;;;0.80;0.80;;;25.00;68.80;;;;;;5123035;28;20773;-39
2021/07/11 09:01:13;;;;;;;1.02;0.93;;;25.00;68.90;;;;;;5122965;28;20028;-39
2021/07/11 09:03:40;;;;;;;1.63;0.80;;;25.00;68.80;;;;;;5122554;28;20049;-39
2021/07/11 09:06:06;;;;;;;1.10;1.00;;;25.00;68.80;;;;;;5122608;28;20028;-39
2021/07/11 09:08:32;;;;;;;1.00;0.88;;;25.00;68.90;;;;;;5122710;28;20023;-38
2021/07/11 09:11:00;;;;;;;1.02;0.88;;;25.00;68.80;;;;;;5115949;28;20021;-39
2021/07/11 09:13:27;;;;;;;1.38;0.73;;;25.00;68.90;;;;;;5134879;28;20123;-39
2021/07/11 09:15:58;;;;;;;0.70;0.70;;;25.00;68.90;;;;;;5102241;28;20024;-39
2021/07/11 09:18:25;;;;;;;1.55;0.90;;;25.00;68.90;;;;;;5112998;28;20042;-39
2021/07/11 09:21:08;;;;;;;1.13;0.77;;;25.00;68.90;;;;;;5122461;28;20070;-39
2021/07/11 09:23:35;;;;;;;1.40;1.05;;;25.00;69.70;;;;;;5122688;28;20046;-39
2021/07/11 09:26:04;;;;;;;1.40;0.70;;;25.00;68.90;;;;;;5122349;28;20400;-39
2021/07/11 09:28:31;;;;;;;1.30;0.95;;;25.00;69.00;;;;;;5122513;28;20024;-39
2021/07/11 09:31:17;;;;;;;1.23;1.00;;;24.90;68.90;;;;;;5122801;28;20024;-40
2021/07/11 09:33:45;;;;;;;1.27;0.85;;;24.90;68.90;;;;;;5122620;28;20042;-39
2021/07/11 09:36:19;;;;;;;1.90;1.00;;;24.90;69.00;;;;;;5122389;28;20032;-39
2021/07/11 09:39:03;;;;;;;0.68;0.68;;;24.90;69.00;;;;;;5122320;28;20031;-39
2021/07/11 09:41:33;;;;;;;1.10;1.00;;;24.90;68.90;;;;;;5125226;28;20024;-39
2021/07/11 09:44:00;;;;;;;1.20;1.08;;;24.90;69.00;;;;;;5124413;28;20049;-39
2021/07/11 09:46:28;;;;;;;1.10;1.00;;;24.90;69.00;;;;;;5126102;28;20583;-39
2021/07/11 09:48:54;;;;;;;1.10;1.00;;;24.90;69.00;;;;;;5125986;28;20032;-38
2021/07/11 09:51:22;;;;;;;1.17;0.90;;;24.90;69.00;;;;;;5124611;28;20031;-39
2021/07/11 09:53:49;;;;;;;1.80;1.00;;;24.90;69.00;;;;;;5126036;28;20098;-39
2021/07/11 09:56:35;;;;;;;;;;;24.90;69.00;;;;;;5126028;27;20035;-39
2021/07/11 09:59:02;;;;;;;1.20;1.00;;;24.90;68.90;;;;;;5125514;28;20392;-38
2021/07/11 10:01:29;;;;;;;2.33;1.00;;;24.90;68.90;;;;;;5126100;28;20027;-40
2021/07/11 10:03:59;;;;;;;0.88;0.82;;;24.90;69.00;;;;;;5124360;28;20031;-40
2021/07/11 10:06:29;;;;;;;0.90;0.73;;;24.80;69.00;;;;;;5125785;28;20024;-39
2021/07/11 10:08:56;;;;;;;1.58;0.90;;;24.80;68.90;;;;;;5125495;28;20488;-39
2021/07/11 10:11:22;;;;;;;0.93;0.80;;;24.80;69.00;;;;;;5125324;28;20027;-38
2021/07/11 10:13:49;;;;;;;0.90;0.90;;;24.80;68.90;;;;;;5125721;28;20031;-39
2021/07/11 10:16:15;;;;;;;0.88;0.63;;;24.80;69.00;;;;;;5124120;28;20088;-39
2021/07/11 10:18:42;;;;;;;0.93;0.90;;;24.80;69.00;;;;;;5124039;28;20039;-40
2021/07/11 10:21:09;;;;;;;1.00;0.90;;;24.80;69.00;;;;;;5124066;28;20768;-39
2021/07/11 10:23:37;;;;;;;0.95;0.93;;;24.80;69.00;;;;;;5125581;28;20023;-39
2021/07/11 10:26:04;;;;;;;0.90;0.90;;;24.80;69.00;;;;;;5125092;28;20016;-39
2021/07/11 10:28:32;;;;;;;0.80;0.80;;;24.80;69.00;;;;;;5125399;28;20046;-38
2021/07/11 10:30:59;;;;;;;1.20;1.10;;;24.80;69.00;;;;;;5125272;28;20738;-38
2021/07/11 10:33:25;;;;;;;0.93;0.90;;;24.80;69.10;;;;;;5125165;28;20024;-37
2021/07/11 10:35:58;;;;;;;1.05;0.80;;;24.80;69.00;;;;;;5124843;28;20054;-38
2021/07/11 10:38:32;;;;;;;1.00;0.90;;;24.80;69.10;;;;;;5125132;28;20141;-38
2021/07/11 10:41:23;;;;;;;1.08;0.98;;;24.80;69.10;;;;;;5124971;28;20059;-41
2021/07/11 10:44:05;;;;;;;1.23;0.98;;;24.80;69.00;;;;;;5125029;28;20077;-40
2021/07/11 10:46:37;;;;;;;0.80;0.80;;;24.80;69.00;;;;;;5124391;28;20091;-41
2021/07/11 10:49:12;;;;;;;1.00;0.80;;;24.80;69.00;;;;;;5120759;28;20023;-38
2021/07/11 10:51:43;;;;;;;0.80;0.80;;;24.80;69.10;;;;;;5122715;28;20024;-39
2021/07/11 10:54:29;;;;;;;0.90;0.80;;;24.80;69.10;;;;;;5124844;28;20023;-40
2021/07/11 10:57:00;;;;;;;1.10;0.80;;;24.80;69.10;;;;;;5124097;28;20034;-39
2021/07/11 10:59:33;;;;;;;1.08;0.80;;;24.80;69.10;;;;;;5123410;28;20055;-37
2021/07/11 11:02:00;;;;;;;1.10;0.85;;;24.70;69.10;;;;;;5124716;28;20084;-38
2021/07/11 11:04:27;;;;;;;0.70;0.70;;;24.80;69.20;;;;;;5123141;28;20031;-39
2021/07/11 11:06:53;;;;;;;1.10;0.90;;;24.70;69.00;;;;;;5124267;28;20059;-39
2021/07/11 11:09:38;;;;;;;1.35;0.90;;;24.70;69.10;;;;;;5124436;28;20468;-40
2021/07/11 11:12:27;;;;;;;0.85;0.80;;;24.70;69.10;;;;;;5124318;28;20031;-39
2021/07/11 11:15:12;;;;;;;1.00;0.90;;;24.70;69.10;;;;;;5124317;28;20024;-40
2021/07/11 11:17:39;;;;;;;1.52;1.00;;;24.70;69.10;;;;;;5123988;28;20043;-40
2021/07/11 11:20:12;;;;;;;0.80;0.80;;;24.70;69.10;;;;;;5124099;28;20089;-39
2021/07/11 11:22:38;;;;;;;0.80;0.80;;;24.70;69.10;;;;;;5124327;28;20023;-39
2021/07/11 11:25:05;;;;;;;1.88;0.80;;;24.70;69.10;;;;;;5124111;28;20023;-39
2021/07/11 11:27:42;;;;;;;1.10;1.00;;;24.70;69.10;;;;;;5123951;28;20486;-38
2021/07/11 11:30:13;;;;;;;1.20;0.88;;;24.70;69.10;;;;;;5124238;28;20040;-38
2021/07/11 11:32:39;;;;;;;1.52;0.90;;;24.70;69.10;;;;;;5124012;28;20036;-39
2021/07/11 11:35:06;;;;;;;0.98;0.80;;;24.70;69.10;;;;;;5123916;28;20031;-44
2021/07/11 11:37:33;;;;;;;0.80;0.80;;;24.70;69.10;;;;;;5123543;28;20039;-39
2021/07/11 11:40:06;;;;;;;0.93;0.80;;;24.70;69.10;;;;;;5122224;28;20023;-39
2021/07/11 11:42:32;;;;;;;0.80;0.80;;;24.70;69.10;;;;;;5123327;28;20067;-39
2021/07/11 11:45:08;;;;;;;0.82;0.73;;;24.70;69.10;;;;;;5123393;28;20023;-39
2021/07/11 11:47:37;;;;;;;1.13;1.02;;;24.70;69.10;;;;;;5123377;28;20016;-37
2021/07/11 11:50:11;;;;;;;1.10;1.00;;;24.70;69.10;;;;;;5122291;28;20020;-39
2021/07/11 11:52:37;;;;;;;0.85;0.80;;;24.70;69.10;;;;;;5123764;28;20020;-37
2021/07/11 11:55:04;;;;;;;1.10;1.00;;;24.70;69.10;;;;;;5123462;28;20046;-41
2021/07/11 11:57:36;;;;;;;1.00;0.80;;;24.70;69.20;;;;;;5123340;28;20099;-39
2021/07/11 12:00:05;;;;;;;1.10;0.70;;;24.70;69.20;;;;;;5123424;28;20055;-40
2021/07/11 12:02:32;;;;;;;0.80;0.80;;;24.70;69.10;;;;;;5123508;28;20047;-40
2021/07/11 12:05:09;;;;;;;1.30;0.80;;;24.70;69.10;;;;;;5122220;28;20047;-39
2021/07/11 12:07:35;;;;;;;0.98;0.82;;;24.70;69.10;;;;;;5122958;28;20024;-39
2021/07/11 12:10:01;;;;;;;0.88;0.75;;;24.70;69.10;;;;;;5121880;28;20028;-39
2021/07/11 12:12:27;;;;;;;0.80;0.80;;;24.60;69.10;;;;;;5121753;28;20118;-38
2021/07/11 12:14:53;;;;;;;1.23;1.00;;;24.70;69.10;;;;;;5123430;28;20035;-39
2021/07/11 12:17:19;;;;;;;0.77;0.77;;;24.70;69.10;;;;;;5123213;28;20104;-39
2021/07/11 12:19:47;;;;;;;1.20;0.90;;;24.70;69.10;;;;;;5122978;28;20055;-39
2021/07/11 12:22:26;;;;;;;0.75;0.75;;;24.70;69.20;;;;;;5123145;28;20118;-40
2021/07/11 12:25:05;;;;;;;0.95;0.90;;;24.70;69.10;;;;;;5123181;28;20023;-40
2021/07/11 12:27:36;;;;;;;0.85;0.70;;;24.60;69.00;;;;;;5123017;28;20028;-40
2021/07/11 12:30:14;;;;;;;0.73;0.73;;;24.70;69.10;;;;;;5122968;28;20030;-40
2021/07/11 12:32:51;;;;;;;0.80;0.80;;;24.60;69.00;;;;;;5123286;28;20056;-39
2021/07/11 12:35:18;;;;;;;0.80;0.80;;;24.60;69.10;;;;;;5123118;28;20050;-40
2021/07/11 12:37:59;;;;;;;0.95;0.85;;;24.60;69.10;;;;;;5122785;28;20046;-39
2021/07/11 12:40:32;;;;;;;0.75;0.60;;;24.60;69.10;;;;;;5121393;28;20032;-40
2021/07/11 12:43:20;;;;;;;1.30;0.80;;;24.60;69.10;;;;;;5122921;28;20081;-39
2021/07/11 12:46:09;;;;;;;1.05;0.95;;;24.60;69.20;;;;;;5122926;28;20031;-39
2021/07/11 12:48:36;;;;;;;0.80;0.80;;;24.60;69.20;;;;;;5122567;28;20023;-39
2021/07/11 12:51:29;;;;;;;0.85;0.80;;;24.60;69.20;;;;;;5122869;28;20027;-38
2021/07/11 12:53:59;;;;;;;0.70;0.70;;;24.60;69.90;;;;;;5121017;28;20031;-40